Millbrook, Canada
Current Conditions -  °F | °C
As of 5:00 PM on Monday 26 Jan 2015 (Local Time) from CYPQ Reporting Station
Scattered Clouds Scattered Clouds  
Wind Chill:   Ceiling: Unl
Heat Index: 14°   Visibility: 9mi
Dew Point: -6°   Wind: 12mph
Humidity: 41%   Direction: 60°ENE
Pressure: 30"   Gusts: 17mph
Location:  44.15°N, 78.45°W
Report Text: CYPQ 262200Z AUTO 06010G15KT 9SM SCT065 SCT083 M10/M21 A3000 RMK SLP173
Loading
Personal Weather Stations






























Interactive Weather Map New forecast layout! Learn more

10-Day Weather Forecast

Advertisements
Track Severe Weather on mobile